createdAt,value
2017-04-30T00:00:09.756Z,0
2017-04-30T00:01:19.355Z,0
2017-04-30T00:02:28.244Z,0
2017-04-30T00:03:37.780Z,0
2017-04-30T00:04:46.988Z,0
2017-04-30T00:05:56.205Z,0
2017-04-30T00:07:05.895Z,0
2017-04-30T00:08:15.755Z,0
2017-04-30T00:09:25.291Z,0
2017-04-30T00:10:34.830Z,0
2017-04-30T00:11:43.717Z,0
2017-04-30T00:12:53.081Z,0
2017-04-30T00:14:02.620Z,0
2017-04-30T00:15:11.833Z,0
2017-04-30T00:16:21.370Z,0
2017-04-30T00:17:30.581Z,0
2017-04-30T00:18:40.166Z,0
2017-04-30T00:19:49.382Z,0
2017-04-30T00:20:58.266Z,0
2017-04-30T00:22:07.798Z,0
2017-04-30T00:23:17.334Z,0
2017-04-30T00:24:27.571Z,0
2017-04-30T00:25:36.779Z,0
2017-04-30T00:26:46.001Z,0
2017-04-30T00:27:55.532Z,0
2017-04-30T00:29:05.069Z,0
2017-04-30T00:30:14.912Z,0
2017-04-30T00:31:23.794Z,0
2017-04-30T00:32:33.053Z,0
2017-04-30T00:33:42.587Z,0
2017-04-30T00:34:52.128Z,0
2017-04-30T00:36:01.071Z,0
2017-04-30T00:37:09.960Z,0
2017-04-30T00:38:19.185Z,0
2017-04-30T00:39:28.723Z,0
2017-04-30T00:40:37.937Z,0
2017-04-30T00:41:47.880Z,0
2017-04-30T00:42:57.094Z,0
2017-04-30T00:44:06.952Z,0
2017-04-30T00:45:16.163Z,0
2017-04-30T00:46:25.055Z,0
2017-04-30T00:47:34.040Z,0
2017-04-30T00:48:43.252Z,0
2017-04-30T00:49:52.134Z,0
2017-04-30T00:51:01.714Z,0
2017-04-30T00:52:10.603Z,0
2017-04-30T00:53:19.645Z,0
2017-04-30T00:54:29.187Z,0
2017-04-30T00:55:38.080Z,0
2017-04-30T00:56:47.618Z,0
2017-04-30T00:57:56.825Z,0
2017-04-30T00:59:06.511Z,0
2017-04-30T01:00:15.719Z,0
2017-04-30T01:01:24.606Z,0
2017-04-30T01:02:33.814Z,0
2017-04-30T01:03:43.019Z,0
2017-04-30T01:04:52.050Z,0
2017-04-30T01:06:01.260Z,0
2017-04-30T01:07:10.141Z,0
2017-04-30T01:08:19.675Z,0
2017-04-30T01:09:29.214Z,0
2017-04-30T01:10:38.197Z,0
2017-04-30T01:11:47.080Z,0
2017-04-30T01:12:56.620Z,0
2017-04-30T01:14:06.482Z,0
2017-04-30T01:15:15.691Z,0
2017-04-30T01:16:24.724Z,0
2017-04-30T01:17:33.605Z,0
2017-04-30T01:18:43.143Z,0
2017-04-30T01:19:52.364Z,0
2017-04-30T01:21:01.901Z,0
2017-04-30T01:22:11.434Z,0
2017-04-30T01:23:20.654Z,0
2017-04-30T01:24:30.517Z,0
2017-04-30T01:25:39.402Z,0
2017-04-30T01:26:48.296Z,0
2017-04-30T01:27:57.890Z,0
2017-04-30T01:29:07.426Z,0
2017-04-30T01:30:16.961Z,0
2017-04-30T01:31:25.852Z,0
2017-04-30T01:32:35.062Z,0
2017-04-30T01:33:45.071Z,0
2017-04-30T01:34:53.953Z,0
2017-04-30T01:36:03.163Z,0
2017-04-30T01:37:12.692Z,0
2017-04-30T01:38:21.902Z,0
2017-04-30T01:39:31.588Z,0
2017-04-30T01:40:40.473Z,0
2017-04-30T01:41:50.007Z,0
2017-04-30T01:42:59.236Z,0
2017-04-30T01:44:08.770Z,0
2017-04-30T01:45:18.608Z,0
2017-04-30T01:46:27.503Z,0
2017-04-30T01:47:36.711Z,0
2017-04-30T01:48:45.926Z,0
2017-04-30T01:49:55.462Z,0
2017-04-30T01:51:05.147Z,0
2017-04-30T01:52:14.031Z,0
2017-04-30T01:53:23.903Z,0
2017-04-30T01:54:33.447Z,0
2017-04-30T01:55:42.980Z,0
2017-04-30T01:56:52.014Z,0
2017-04-30T01:58:01.598Z,0
2017-04-30T01:59:11.780Z,0
2017-04-30T02:00:20.991Z,0
2017-04-30T02:01:30.206Z,0
2017-04-30T02:02:39.889Z,0
2017-04-30T02:03:48.780Z,0
2017-04-30T02:04:57.666Z,0
2017-04-30T02:06:06.874Z,0
2017-04-30T02:07:15.756Z,0
2017-04-30T02:08:25.448Z,0
2017-04-30T02:09:34.988Z,0
2017-04-30T02:10:43.871Z,0
2017-04-30T02:11:52.753Z,0
2017-04-30T02:13:01.970Z,0
2017-04-30T02:14:11.771Z,0
2017-04-30T02:15:20.980Z,0
2017-04-30T02:16:29.862Z,0
2017-04-30T02:17:39.396Z,0
2017-04-30T02:18:48.281Z,0
2017-04-30T02:19:57.969Z,0
2017-04-30T02:21:07.177Z,0
2017-04-30T02:22:16.064Z,0
2017-04-30T02:23:25.279Z,0
2017-04-30T02:24:34.166Z,0
2017-04-30T02:25:44.023Z,0
2017-04-30T02:26:53.239Z,0
2017-04-30T02:28:02.778Z,0
2017-04-30T02:29:11.665Z,0
2017-04-30T02:30:20.552Z,0
2017-04-30T02:31:29.814Z,0
2017-04-30T02:32:39.346Z,0
2017-04-30T02:33:48.553Z,0
2017-04-30T02:34:57.800Z,0
2017-04-30T02:36:07.341Z,0
2017-04-30T02:37:16.378Z,0
2017-04-30T02:38:26.239Z,0
2017-04-30T02:39:35.451Z,0
2017-04-30T02:40:44.986Z,0
2017-04-30T02:41:53.866Z,0
2017-04-30T02:43:04.205Z,0
2017-04-30T02:44:13.420Z,0
2017-04-30T02:45:22.629Z,0
2017-04-30T02:46:31.838Z,0
2017-04-30T02:47:40.725Z,0
2017-04-30T02:48:50.563Z,0
2017-04-30T02:50:00.109Z,0
2017-04-30T02:51:09.647Z,0
2017-04-30T02:52:18.861Z,0
2017-04-30T02:53:28.718Z,0
2017-04-30T02:54:37.754Z,0
2017-04-30T02:55:46.962Z,0
2017-04-30T02:56:56.177Z,0
2017-04-30T02:58:05.064Z,0
2017-04-30T02:59:14.275Z,0
2017-04-30T03:00:23.209Z,0
2017-04-30T03:01:32.421Z,0
2017-04-30T03:02:41.632Z,0
2017-04-30T03:03:51.492Z,0
2017-04-30T03:05:01.028Z,0
2017-04-30T03:06:10.292Z,0
2017-04-30T03:07:19.499Z,0
2017-04-30T03:08:28.711Z,0
2017-04-30T03:09:37.596Z,0
2017-04-30T03:10:46.820Z,0
2017-04-30T03:11:56.184Z,0
2017-04-30T03:13:05.396Z,0
2017-04-30T03:14:14.281Z,0
2017-04-30T03:15:23.813Z,0
2017-04-30T03:16:32.697Z,0
2017-04-30T03:17:42.708Z,4
2017-04-30T03:18:52.242Z,0
2017-04-30T03:20:02.104Z,0
2017-04-30T03:21:11.313Z,4
2017-04-30T03:22:20.526Z,0
2017-04-30T03:23:30.210Z,4
2017-04-30T03:24:39.418Z,4
2017-04-30T03:25:48.625Z,4
2017-04-30T03:26:57.831Z,8
2017-04-30T03:28:07.042Z,12
2017-04-30T03:29:16.237Z,8
2017-04-30T03:30:25.771Z,12
2017-04-30T03:31:34.655Z,12
2017-04-30T03:32:43.863Z,16
2017-04-30T03:33:53.402Z,20
2017-04-30T03:35:02.991Z,20
2017-04-30T03:36:12.853Z,24
2017-04-30T03:37:22.080Z,32
2017-04-30T03:38:31.291Z,40
2017-04-30T03:39:40.499Z,44
2017-04-30T03:40:49.896Z,52
2017-04-30T03:41:59.106Z,60
2017-04-30T03:43:08.644Z,72
2017-04-30T03:44:17.859Z,80
2017-04-30T03:45:26.743Z,92
2017-04-30T03:46:36.102Z,104
2017-04-30T03:47:45.646Z,120
2017-04-30T03:48:54.856Z,136
2017-04-30T03:50:04.068Z,152
2017-04-30T03:51:12.956Z,168
2017-04-30T03:52:22.595Z,192
2017-04-30T03:53:31.804Z,212
2017-04-30T03:54:41.992Z,232
2017-04-30T03:55:50.876Z,260
2017-04-30T03:57:00.086Z,284
2017-04-30T03:58:09.773Z,312
2017-04-30T03:59:19.015Z,344
2017-04-30T04:00:28.227Z,372
2017-04-30T04:01:37.439Z,404
2017-04-30T04:02:46.650Z,436
2017-04-30T04:03:56.110Z,472
2017-04-30T04:05:05.331Z,500
2017-04-30T04:06:14.542Z,540
2017-04-30T04:07:23.432Z,576
2017-04-30T04:08:32.967Z,612
2017-04-30T04:09:42.504Z,652
2017-04-30T04:10:51.386Z,688
2017-04-30T04:12:00.597Z,724
2017-04-30T04:13:10.132Z,764
2017-04-30T04:14:19.354Z,804
2017-04-30T04:15:29.048Z,840
2017-04-30T04:16:37.938Z,880
2017-04-30T04:17:47.476Z,924
2017-04-30T04:18:56.692Z,964
2017-04-30T04:20:05.905Z,1000
2017-04-30T04:21:15.092Z,1040
2017-04-30T04:22:24.624Z,1080
2017-04-30T04:23:33.834Z,1116
2017-04-30T04:24:43.371Z,1152
2017-04-30T04:25:52.579Z,1192
2017-04-30T04:27:02.488Z,1228
2017-04-30T04:28:11.707Z,1268
2017-04-30T04:29:20.919Z,1312
2017-04-30T04:30:29.812Z,1348
2017-04-30T04:31:38.701Z,1388
2017-04-30T04:32:47.690Z,1420
2017-04-30T04:33:56.909Z,1456
2017-04-30T04:35:05.794Z,1492
2017-04-30T04:36:15.006Z,1524
2017-04-30T04:37:23.899Z,1560
2017-04-30T04:38:33.168Z,1596
2017-04-30T04:39:42.381Z,1624
2017-04-30T04:40:51.594Z,1660
2017-04-30T04:42:00.803Z,1688
2017-04-30T04:43:10.022Z,1720
2017-04-30T04:44:19.676Z,1748
2017-04-30T04:45:28.890Z,1780
2017-04-30T04:46:38.749Z,1808
2017-04-30T04:47:47.958Z,1836
2017-04-30T04:48:56.842Z,1864
2017-04-30T04:50:05.781Z,1888
2017-04-30T04:51:14.664Z,1912
2017-04-30T04:52:23.547Z,1940
2017-04-30T04:53:33.085Z,1972
2017-04-30T04:54:42.955Z,1992
2017-04-30T04:55:51.991Z,2016
2017-04-30T04:57:01.537Z,2040
2017-04-30T04:58:10.747Z,2060
2017-04-30T04:59:20.284Z,2088
2017-04-30T05:00:29.504Z,2112
2017-04-30T05:01:38.444Z,2132
2017-04-30T05:02:47.987Z,2152
2017-04-30T05:03:57.524Z,2172
2017-04-30T05:05:07.061Z,2188
2017-04-30T05:06:16.276Z,2212
2017-04-30T05:07:25.320Z,2228
2017-04-30T05:08:34.536Z,2248
2017-04-30T05:09:43.749Z,2268
2017-04-30T05:10:52.639Z,2284
2017-04-30T05:12:01.859Z,2300
2017-04-30T05:13:11.398Z,2320
2017-04-30T05:14:20.946Z,2332
2017-04-30T05:15:30.160Z,2352
2017-04-30T05:16:39.046Z,2368
2017-04-30T05:17:48.584Z,2376
2017-04-30T05:18:57.847Z,2396
2017-04-30T05:20:06.734Z,2408
2017-04-30T05:21:15.949Z,2424
2017-04-30T05:22:24.838Z,2436
2017-04-30T05:23:33.727Z,2456
2017-04-30T05:24:43.614Z,2468
2017-04-30T05:25:52.501Z,2480
2017-04-30T05:27:02.047Z,2496
2017-04-30T05:28:11.264Z,2508
2017-04-30T05:29:20.478Z,2520
2017-04-30T05:30:29.513Z,2536
2017-04-30T05:31:38.410Z,2548
2017-04-30T05:32:47.948Z,2556
2017-04-30T05:33:57.811Z,2572
2017-04-30T05:35:07.025Z,2584
2017-04-30T05:36:16.538Z,2596
2017-04-30T05:37:25.760Z,2604
2017-04-30T05:38:35.021Z,2616
2017-04-30T05:39:44.895Z,2640
2017-04-30T05:40:54.432Z,2636
2017-04-30T05:42:03.793Z,2648
2017-04-30T05:43:13.665Z,2660
2017-04-30T05:44:22.557Z,2672
2017-04-30T05:45:31.775Z,2684
2017-04-30T05:46:40.661Z,2692
2017-04-30T05:47:50.348Z,2704
2017-04-30T05:48:59.890Z,2708
2017-04-30T05:50:09.102Z,2720
2017-04-30T05:51:17.988Z,2728
2017-04-30T05:52:26.873Z,2744
2017-04-30T05:53:35.920Z,2744
2017-04-30T05:54:44.808Z,2760
2017-04-30T05:55:54.019Z,2764
2017-04-30T05:57:02.909Z,2772
2017-04-30T05:58:12.130Z,2780
2017-04-30T05:59:21.348Z,2788
2017-04-30T06:00:30.889Z,2796
2017-04-30T06:01:39.776Z,2808
2017-04-30T06:02:48.675Z,2820
2017-04-30T06:03:58.543Z,2828
2017-04-30T06:05:07.479Z,2840
2017-04-30T06:06:17.016Z,2840
2017-04-30T06:07:26.230Z,2848
2017-04-30T06:08:35.450Z,2852
2017-04-30T06:09:44.670Z,2860
2017-04-30T06:10:53.886Z,2872
2017-04-30T06:12:02.780Z,2876
2017-04-30T06:13:11.993Z,2888
2017-04-30T06:14:21.216Z,2896
2017-04-30T06:15:30.762Z,2896
2017-04-30T06:16:39.650Z,2904
2017-04-30T06:17:48.541Z,2904
2017-04-30T06:18:58.080Z,2928
2017-04-30T06:20:07.303Z,2920
2017-04-30T06:21:16.519Z,2928
2017-04-30T06:22:26.309Z,2944
2017-04-30T06:23:35.205Z,2932
2017-04-30T06:24:44.747Z,2936
2017-04-30T06:25:54.288Z,2948
2017-04-30T06:27:03.179Z,2956
2017-04-30T06:28:12.771Z,2964
2017-04-30T06:29:22.307Z,2968
2017-04-30T06:30:31.196Z,2972
2017-04-30T06:31:40.088Z,2980
2017-04-30T06:32:49.313Z,2984
2017-04-30T06:33:58.689Z,2984
2017-04-30T06:35:07.896Z,2992
2017-04-30T06:36:16.798Z,3004
2017-04-30T06:37:25.689Z,3000
2017-04-30T06:38:34.909Z,3008
2017-04-30T06:39:44.332Z,3004
2017-04-30T06:40:53.871Z,3012
2017-04-30T06:42:03.085Z,3032
2017-04-30T06:43:11.975Z,3032
2017-04-30T06:44:21.845Z,3040
2017-04-30T06:45:31.964Z,3048
2017-04-30T06:46:40.850Z,3048
2017-04-30T06:47:50.393Z,3048
2017-04-30T06:48:59.606Z,3064
2017-04-30T06:50:08.499Z,3056
2017-04-30T06:51:17.538Z,3064
2017-04-30T06:52:26.429Z,3068
2017-04-30T06:53:35.326Z,3072
2017-04-30T06:54:44.543Z,3084
2017-04-30T06:55:53.760Z,3088
2017-04-30T06:57:02.750Z,3104
2017-04-30T06:58:12.301Z,3112
2017-04-30T06:59:22.165Z,3104
2017-04-30T07:00:31.703Z,3120
2017-04-30T07:01:40.598Z,3120
2017-04-30T07:02:49.962Z,3136
2017-04-30T07:03:59.179Z,3136
2017-04-30T07:05:08.395Z,3144
2017-04-30T07:06:17.282Z,3152
2017-04-30T07:07:26.181Z,3168
2017-04-30T07:08:35.483Z,3172
2017-04-30T07:09:45.353Z,3176
2017-04-30T07:10:54.891Z,3168
2017-04-30T07:12:04.111Z,3176
2017-04-30T07:13:13.657Z,3188
2017-04-30T07:14:23.345Z,3176
2017-04-30T07:15:32.563Z,3192
2017-04-30T07:16:41.458Z,3188
2017-04-30T07:17:51.323Z,3200
2017-04-30T07:19:01.195Z,3216
2017-04-30T07:20:10.471Z,3212
2017-04-30T07:21:19.363Z,3220
2017-04-30T07:22:28.256Z,3208
2017-04-30T07:23:37.477Z,3224
2017-04-30T07:24:46.686Z,3240
2017-04-30T07:25:55.641Z,3236
2017-04-30T07:27:04.855Z,3252
2017-04-30T07:28:13.744Z,3244
2017-04-30T07:29:23.293Z,3244
2017-04-30T07:30:32.836Z,3268
2017-04-30T07:31:42.255Z,3272
2017-04-30T07:32:51.151Z,3256
2017-04-30T07:34:00.698Z,3252
2017-04-30T07:35:09.586Z,3264
2017-04-30T07:36:18.805Z,3264
2017-04-30T07:37:28.495Z,3260
2017-04-30T07:38:38.034Z,3260
2017-04-30T07:39:47.581Z,3260
2017-04-30T07:40:56.798Z,3260
2017-04-30T07:42:05.689Z,3260
2017-04-30T07:43:15.060Z,3272
2017-04-30T07:44:24.601Z,3260
2017-04-30T07:45:33.823Z,3276
2017-04-30T07:46:43.058Z,3288
2017-04-30T07:47:52.605Z,3280
2017-04-30T07:49:02.298Z,3296
2017-04-30T07:50:11.194Z,3304
2017-04-30T07:51:20.087Z,3312
2017-04-30T07:52:29.629Z,3292
2017-04-30T07:53:38.849Z,3304
2017-04-30T07:54:48.097Z,3300
2017-04-30T07:55:56.988Z,3304
2017-04-30T07:57:05.879Z,3296
2017-04-30T07:58:15.427Z,3308
2017-04-30T07:59:25.676Z,3312
2017-04-30T08:00:35.274Z,3308
2017-04-30T08:01:44.498Z,3308
2017-04-30T08:02:53.724Z,3312
2017-04-30T08:04:03.273Z,3324
2017-04-30T08:05:12.489Z,3320
2017-04-30T08:06:21.857Z,3320
2017-04-30T08:07:31.074Z,3328
2017-04-30T08:08:40.621Z,3340
2017-04-30T08:09:49.836Z,3352
2017-04-30T08:10:59.385Z,3356
2017-04-30T08:12:08.435Z,3348
2017-04-30T08:13:17.660Z,3344
2017-04-30T08:14:27.214Z,3368
2017-04-30T08:15:36.759Z,3368
2017-04-30T08:16:45.652Z,3380
2017-04-30T08:17:54.698Z,3376
2017-04-30T08:19:04.599Z,3384
2017-04-30T08:20:13.830Z,3392
2017-04-30T08:21:22.721Z,3396
2017-04-30T08:22:31.935Z,3408
2017-04-30T08:23:41.453Z,3400
2017-04-30T08:24:50.991Z,3416
2017-04-30T08:26:00.538Z,3412
2017-04-30T08:27:09.761Z,3424
2017-04-30T08:28:18.668Z,3432
2017-04-30T08:29:28.911Z,3440
2017-04-30T08:30:38.132Z,3424
2017-04-30T08:31:47.352Z,3440
2017-04-30T08:32:56.901Z,3440
2017-04-30T08:34:06.126Z,3440
2017-04-30T08:35:15.417Z,3456
2017-04-30T08:36:24.310Z,3456
2017-04-30T08:37:33.534Z,3468
2017-04-30T08:38:43.406Z,3468
2017-04-30T08:39:52.298Z,3464
2017-04-30T08:41:01.663Z,3472
2017-04-30T08:42:10.558Z,3472
2017-04-30T08:43:19.460Z,3460
2017-04-30T08:44:28.693Z,3476
2017-04-30T08:45:37.909Z,3496
2017-04-30T08:46:47.930Z,3496
2017-04-30T08:47:57.805Z,3488
2017-04-30T08:49:07.352Z,3520
2017-04-30T08:50:16.898Z,3528
2017-04-30T08:51:25.793Z,3532
2017-04-30T08:52:34.737Z,3524
2017-04-30T08:53:44.611Z,3528
2017-04-30T08:54:54.158Z,3524
2017-04-30T08:56:04.034Z,3536
2017-04-30T08:57:13.251Z,3532
2017-04-30T08:58:22.618Z,3532
2017-04-30T08:59:31.842Z,3552
2017-04-30T09:00:41.063Z,3556
2017-04-30T09:01:49.962Z,3568
2017-04-30T09:02:59.180Z,3596
2017-04-30T09:04:08.369Z,3592
2017-04-30T09:05:17.594Z,3556
2017-04-30T09:06:26.488Z,3584
2017-04-30T09:07:36.362Z,3580
2017-04-30T09:08:45.907Z,3592
2017-04-30T09:09:55.760Z,3576
2017-04-30T09:11:04.984Z,3612
2017-04-30T09:12:13.878Z,3632
2017-04-30T09:13:23.756Z,3628
2017-04-30T09:14:33.686Z,3632
2017-04-30T09:15:43.091Z,3652
2017-04-30T09:16:52.633Z,3652
2017-04-30T09:18:02.182Z,3640
2017-04-30T09:19:11.732Z,3628
2017-04-30T09:20:20.951Z,3636
2017-04-30T09:21:29.990Z,3636
2017-04-30T09:22:38.881Z,3644
2017-04-30T09:23:47.783Z,3660
2017-04-30T09:24:56.680Z,3676
2017-04-30T09:26:06.222Z,3680
2017-04-30T09:27:15.171Z,3688
2017-04-30T09:28:24.392Z,3688
2017-04-30T09:29:33.939Z,3688
2017-04-30T09:30:42.841Z,3696
2017-04-30T09:31:52.731Z,3712
2017-04-30T09:33:02.156Z,3724
2017-04-30T09:34:11.374Z,3720
2017-04-30T09:35:20.269Z,3736
2017-04-30T09:36:29.165Z,3756
2017-04-30T09:37:38.389Z,3784
2017-04-30T09:38:47.658Z,3776
2017-04-30T09:39:56.557Z,3788
2017-04-30T09:41:05.776Z,3788
2017-04-30T09:42:14.671Z,3788
2017-04-30T09:43:23.565Z,3788
2017-04-30T09:44:33.262Z,3816
2017-04-30T09:45:42.487Z,3840
2017-04-30T09:46:51.706Z,3852
2017-04-30T09:48:01.253Z,3880
2017-04-30T09:49:10.804Z,3908
2017-04-30T09:50:20.351Z,3880
2017-04-30T09:51:29.245Z,3892
2017-04-30T09:52:38.469Z,3936
2017-04-30T09:53:47.696Z,3952
2017-04-30T09:54:57.901Z,3952
2017-04-30T09:56:07.605Z,3960
2017-04-30T09:57:16.827Z,3972
2017-04-30T09:58:26.050Z,3996
2017-04-30T09:59:35.592Z,4032
2017-04-30T10:00:44.489Z,4048
2017-04-30T10:01:53.632Z,4088
2017-04-30T10:03:02.526Z,4108
2017-04-30T10:04:11.746Z,4136
2017-04-30T10:05:21.287Z,4160
2017-04-30T10:06:30.506Z,4184
2017-04-30T10:07:39.547Z,4216
2017-04-30T10:08:48.451Z,4252
2017-04-30T10:09:57.670Z,4260
2017-04-30T10:11:06.897Z,4292
2017-04-30T10:12:16.114Z,4332
2017-04-30T10:13:25.436Z,4388
2017-04-30T10:14:35.308Z,4428
2017-04-30T10:15:44.859Z,4440
2017-04-30T10:16:53.754Z,4452
2017-04-30T10:18:02.974Z,4512
2017-04-30T10:19:12.017Z,4520
2017-04-30T10:20:21.564Z,4572
2017-04-30T10:21:30.459Z,4588
2017-04-30T10:22:40.004Z,4648
2017-04-30T10:23:49.552Z,4692
2017-04-30T10:24:59.260Z,4720
2017-04-30T10:26:09.138Z,4772
2017-04-30T10:27:18.683Z,4796
2017-04-30T10:28:28.245Z,4824
2017-04-30T10:29:37.790Z,4872
2017-04-30T10:30:46.835Z,4960
2017-04-30T10:31:55.737Z,5012
2017-04-30T10:33:04.637Z,5108
2017-04-30T10:34:13.874Z,5148
2017-04-30T10:35:23.138Z,5156
2017-04-30T10:36:32.406Z,5168
2017-04-30T10:37:41.302Z,5196
2017-04-30T10:38:50.847Z,5196
2017-04-30T10:40:00.069Z,5204
2017-04-30T10:41:09.289Z,5212
2017-04-30T10:42:18.333Z,5240
2017-04-30T10:43:27.879Z,5312
2017-04-30T10:44:37.753Z,5368
2017-04-30T10:45:46.977Z,5420
2017-04-30T10:46:55.876Z,5436
2017-04-30T10:48:05.895Z,5484
2017-04-30T10:49:15.116Z,5552
2017-04-30T10:50:24.660Z,5600
2017-04-30T10:51:33.881Z,5632
2017-04-30T10:52:43.436Z,5688
2017-04-30T10:53:53.081Z,5740
2017-04-30T10:55:02.630Z,5872
2017-04-30T10:56:11.856Z,5976
2017-04-30T10:57:21.407Z,6072
2017-04-30T10:58:30.627Z,6148
2017-04-30T10:59:40.647Z,6140
2017-04-30T11:00:49.903Z,6160
2017-04-30T11:01:59.124Z,6260
2017-04-30T11:03:08.348Z,6296
2017-04-30T11:04:17.894Z,6292
2017-04-30T11:05:27.266Z,6228
2017-04-30T11:06:36.805Z,6260
2017-04-30T11:07:46.349Z,6340
2017-04-30T11:08:55.906Z,6276
2017-04-30T11:10:05.133Z,6300
2017-04-30T11:11:14.504Z,6308
2017-04-30T11:12:23.433Z,6308
2017-04-30T11:13:32.659Z,6288
2017-04-30T11:14:42.202Z,6304
2017-04-30T11:15:51.798Z,6368
2017-04-30T11:17:00.953Z,6480
2017-04-30T11:18:10.175Z,6580
2017-04-30T11:19:19.723Z,6600
2017-04-30T11:20:28.946Z,6568
2017-04-30T11:21:37.844Z,6580
2017-04-30T11:22:47.064Z,6772
2017-04-30T11:23:56.617Z,6964
2017-04-30T11:25:05.518Z,7212
2017-04-30T11:26:15.066Z,7352
2017-04-30T11:27:24.283Z,7400
2017-04-30T11:28:33.809Z,7532
2017-04-30T11:29:43.029Z,7524
2017-04-30T11:30:52.250Z,7592
2017-04-30T11:32:01.468Z,7660
2017-04-30T11:33:10.689Z,7752
2017-04-30T11:34:20.386Z,7816
2017-04-30T11:35:29.292Z,7864
2017-04-30T11:36:38.529Z,7816
2017-04-30T11:37:47.754Z,7824
2017-04-30T11:38:57.299Z,7928
2017-04-30T11:40:06.568Z,7964
2017-04-30T11:41:16.122Z,8120
2017-04-30T11:42:25.026Z,8312
2017-04-30T11:43:34.576Z,8308
2017-04-30T11:44:43.481Z,8348
2017-04-30T11:45:52.535Z,8528
2017-04-30T11:47:01.761Z,8664
2017-04-30T11:48:11.647Z,8960
2017-04-30T11:49:20.866Z,9328
2017-04-30T11:50:30.745Z,9712
2017-04-30T11:51:40.127Z,10520
2017-04-30T11:52:49.359Z,17088
2017-04-30T11:53:59.235Z,55520
2017-04-30T11:55:08.451Z,66176
2017-04-30T11:56:17.350Z,66720
2017-04-30T11:57:26.549Z,67552
2017-04-30T11:58:35.458Z,67456
2017-04-30T11:59:44.362Z,71104
2017-04-30T12:00:53.910Z,70912
2017-04-30T12:02:02.814Z,65344
2017-04-30T12:03:12.342Z,68800
2017-04-30T12:04:21.248Z,70144
2017-04-30T12:05:30.472Z,68064
2017-04-30T12:06:39.379Z,66752
2017-04-30T12:07:48.286Z,68096
2017-04-30T12:08:57.619Z,68096
2017-04-30T12:10:06.849Z,69216
2017-04-30T12:11:16.080Z,72960
2017-04-30T12:12:24.989Z,76192
2017-04-30T12:13:34.552Z,70848
2017-04-30T12:14:43.936Z,62976
2017-04-30T12:15:53.169Z,64096
2017-04-30T12:17:02.400Z,63552
2017-04-30T12:18:11.633Z,62400
2017-04-30T12:19:21.294Z,62368
2017-04-30T12:20:31.226Z,68064
2017-04-30T12:21:40.777Z,70944
2017-04-30T12:22:49.686Z,76512
2017-04-30T12:23:58.918Z,75808
2017-04-30T12:25:08.150Z,75168
2017-04-30T12:26:17.260Z,77856
2017-04-30T12:27:26.492Z,76096
2017-04-30T12:28:36.051Z,75680
2017-04-30T12:29:45.276Z,70112
2017-04-30T12:30:54.507Z,23456
2017-04-30T12:32:03.897Z,79040
2017-04-30T12:33:13.494Z,76544
2017-04-30T12:34:22.735Z,75840
2017-04-30T12:35:31.967Z,81632
2017-04-30T12:36:40.873Z,86720
2017-04-30T12:37:50.954Z,87168
2017-04-30T12:38:59.858Z,80416
2017-04-30T12:40:08.767Z,82592
2017-04-30T12:41:17.674Z,71360
2017-04-30T12:42:26.579Z,20352
2017-04-30T12:43:35.915Z,95936
2017-04-30T12:44:45.476Z,84480
2017-04-30T12:45:54.718Z,95040
2017-04-30T12:47:04.278Z,88896
2017-04-30T12:48:13.519Z,76864
2017-04-30T12:49:22.842Z,70944
2017-04-30T12:50:32.084Z,60864
2017-04-30T12:51:40.996Z,59264
2017-04-30T12:52:50.229Z,63296
2017-04-30T12:53:59.793Z,49824
2017-04-30T12:55:08.951Z,39584
2017-04-30T12:56:17.855Z,52544
2017-04-30T12:57:27.085Z,55936
2017-04-30T12:58:36.328Z,53760
2017-04-30T12:59:45.566Z,56672
2017-04-30T13:00:54.574Z,69152
2017-04-30T13:02:04.134Z,74944
2017-04-30T13:03:13.368Z,90304
2017-04-30T13:04:22.931Z,99552
2017-04-30T13:05:32.178Z,107040
2017-04-30T13:06:41.790Z,104640
2017-04-30T13:07:51.370Z,100800
2017-04-30T13:09:00.932Z,97152
2017-04-30T13:10:09.848Z,90624
2017-04-30T13:11:18.755Z,84736
2017-04-30T13:12:28.471Z,88288
2017-04-30T13:13:37.384Z,88768
2017-04-30T13:14:46.620Z,96896
2017-04-30T13:15:55.856Z,89504
2017-04-30T13:17:04.802Z,81184
2017-04-30T13:18:14.194Z,81664
2017-04-30T13:19:23.762Z,88928
2017-04-30T13:20:33.006Z,88448
2017-04-30T13:21:42.242Z,87744
2017-04-30T13:22:51.813Z,89152
2017-04-30T13:24:01.527Z,88288
2017-04-30T13:25:10.767Z,89504
2017-04-30T13:26:20.004Z,88096
2017-04-30T13:27:28.916Z,89280
2017-04-30T13:28:38.480Z,94624
2017-04-30T13:29:47.717Z,95904
2017-04-30T13:30:57.280Z,92800
2017-04-30T13:32:06.523Z,90688
2017-04-30T13:33:15.763Z,90688
2017-04-30T13:34:25.327Z,89728
2017-04-30T13:35:35.143Z,94304
2017-04-30T13:36:44.060Z,101056
2017-04-30T13:37:52.981Z,92544
2017-04-30T13:39:02.546Z,89984
2017-04-30T13:40:11.783Z,91040
2017-04-30T13:41:21.046Z,89312
2017-04-30T13:42:30.283Z,89056
2017-04-30T13:43:39.522Z,85984
2017-04-30T13:44:48.764Z,83200
2017-04-30T13:45:57.688Z,90816
2017-04-30T13:47:06.764Z,97216
2017-04-30T13:48:16.340Z,95200
2017-04-30T13:49:26.235Z,91136
2017-04-30T13:50:35.474Z,89696
2017-04-30T13:51:44.717Z,82816
2017-04-30T13:52:54.759Z,74272
2017-04-30T13:54:04.323Z,82272
2017-04-30T13:55:13.233Z,89600
2017-04-30T13:56:22.156Z,84800
2017-04-30T13:57:31.421Z,80960
2017-04-30T13:58:41.088Z,74496
2017-04-30T13:59:50.331Z,71136
2017-04-30T14:00:59.251Z,73312
2017-04-30T14:02:08.494Z,76512
2017-04-30T14:03:17.409Z,68992
2017-04-30T14:04:26.802Z,60224
2017-04-30T14:05:35.715Z,53120
2017-04-30T14:06:45.276Z,45184
2017-04-30T14:07:54.515Z,54656
2017-04-30T14:09:03.759Z,64832
2017-04-30T14:10:13.147Z,75296
2017-04-30T14:11:22.708Z,77280
2017-04-30T14:12:31.621Z,82112
2017-04-30T14:13:40.538Z,76800
2017-04-30T14:14:49.776Z,62080
2017-04-30T14:15:59.058Z,68000
2017-04-30T14:17:08.290Z,60128
2017-04-30T14:18:17.855Z,51712
2017-04-30T14:19:27.417Z,66240
2017-04-30T14:20:36.655Z,75008
2017-04-30T14:21:45.616Z,85664
2017-04-30T14:22:55.177Z,86528
2017-04-30T14:24:04.425Z,86496
2017-04-30T14:25:13.662Z,80896
2017-04-30T14:26:22.573Z,88608
2017-04-30T14:27:31.844Z,92288
2017-04-30T14:28:41.079Z,83840
2017-04-30T14:29:50.319Z,79808
2017-04-30T14:30:59.556Z,78784
2017-04-30T14:32:08.473Z,76704
2017-04-30T14:33:17.389Z,69664
2017-04-30T14:34:26.629Z,69792
2017-04-30T14:35:35.871Z,77056
2017-04-30T14:36:45.116Z,82144
2017-04-30T14:37:54.027Z,81440
2017-04-30T14:39:03.643Z,84000
2017-04-30T14:40:12.876Z,87104
2017-04-30T14:41:21.788Z,89984
2017-04-30T14:42:30.700Z,90592
2017-04-30T14:43:40.262Z,86816
2017-04-30T14:44:49.563Z,86112
2017-04-30T14:45:58.480Z,88960
2017-04-30T14:47:07.720Z,89888
2017-04-30T14:48:16.642Z,85408
2017-04-30T14:49:25.882Z,74784
2017-04-30T14:50:36.351Z,80224
2017-04-30T14:51:45.277Z,81600
2017-04-30T14:52:54.839Z,78464
2017-04-30T14:54:03.760Z,71520
2017-04-30T14:55:13.321Z,64192
2017-04-30T14:56:22.711Z,61024
2017-04-30T14:57:31.946Z,61312
2017-04-30T14:58:41.513Z,72096
2017-04-30T14:59:51.081Z,68064
2017-04-30T15:01:00.646Z,70816
2017-04-30T15:02:09.884Z,74336
2017-04-30T15:03:18.800Z,76224
2017-04-30T15:04:28.688Z,87616
2017-04-30T15:05:37.604Z,81792
2017-04-30T15:06:47.173Z,74720
2017-04-30T15:07:56.610Z,67424
2017-04-30T15:09:05.850Z,62688
2017-04-30T15:10:15.414Z,65344
2017-04-30T15:11:24.326Z,71840
2017-04-30T15:12:33.564Z,79712
2017-04-30T15:13:42.628Z,81664
2017-04-30T15:14:51.540Z,86016
2017-04-30T15:16:00.778Z,90112
2017-04-30T15:17:10.009Z,92544
2017-04-30T15:18:19.244Z,89440
2017-04-30T15:19:29.335Z,88992
2017-04-30T15:20:38.570Z,87488
2017-04-30T15:21:47.487Z,85504
2017-04-30T15:22:56.717Z,85888
2017-04-30T15:24:05.957Z,86560
2017-04-30T15:25:14.923Z,86464
2017-04-30T15:26:23.833Z,89536
2017-04-30T15:27:32.846Z,92192
2017-04-30T15:28:42.092Z,90912
2017-04-30T15:29:51.666Z,90240
2017-04-30T15:31:01.538Z,90464
2017-04-30T15:32:10.458Z,87456
2017-04-30T15:33:19.694Z,86272
2017-04-30T15:34:29.583Z,89632
2017-04-30T15:35:38.823Z,91104
2017-04-30T15:36:47.787Z,88992